sensor_id;sensor_type;location;lat;lon;timestamp;P1;durP1;ratioP1;P2;durP2;ratioP2
67191;SDS011;54120;53.504;49.426;2023-12-20T00:00:15;2.35;;;2.13;;
67191;SDS011;54120;53.504;49.426;2023-12-20T00:02:41;5.22;;;2.25;;
67191;SDS011;54120;53.504;49.426;2023-12-20T00:07:24;3.00;;;2.70;;
67191;SDS011;54120;53.504;49.426;2023-12-20T00:09:50;2.63;;;2.42;;
67191;SDS011;54120;53.504;49.426;2023-12-20T00:12:16;2.88;;;2.65;;
67191;SDS011;54120;53.504;49.426;2023-12-20T00:14:42;2.78;;;2.53;;
67191;SDS011;54120;53.504;49.426;2023-12-20T00:17:10;2.75;;;2.55;;
67191;SDS011;54120;53.504;49.426;2023-12-20T00:19:36;2.97;;;2.67;;
67191;SDS011;54120;53.504;49.426;2023-12-20T00:22:01;3.80;;;2.85;;
67191;SDS011;54120;53.504;49.426;2023-12-20T00:24:27;4.88;;;2.58;;
67191;SDS011;54120;53.504;49.426;2023-12-20T00:26:53;3.22;;;2.67;;
67191;SDS011;54120;53.504;49.426;2023-12-20T00:29:20;2.80;;;2.25;;
67191;SDS011;54120;53.504;49.426;2023-12-20T00:31:46;3.28;;;2.40;;
67191;SDS011;54120;53.504;49.426;2023-12-20T00:34:12;2.92;;;2.67;;
67191;SDS011;54120;53.504;49.426;2023-12-20T00:36:39;2.63;;;2.42;;
67191;SDS011;54120;53.504;49.426;2023-12-20T00:39:05;2.92;;;2.60;;
67191;SDS011;54120;53.504;49.426;2023-12-20T00:41:32;3.28;;;2.70;;
67191;SDS011;54120;53.504;49.426;2023-12-20T00:43:58;2.88;;;2.58;;
67191;SDS011;54120;53.504;49.426;2023-12-20T00:46:24;2.60;;;2.40;;
67191;SDS011;54120;53.504;49.426;2023-12-20T00:48:50;2.53;;;2.33;;
67191;SDS011;54120;53.504;49.426;2023-12-20T00:51:16;2.85;;;2.50;;
67191;SDS011;54120;53.504;49.426;2023-12-20T00:53:42;2.25;;;2.05;;
67191;SDS011;54120;53.504;49.426;2023-12-20T00:56:08;2.50;;;2.30;;
67191;SDS011;54120;53.504;49.426;2023-12-20T00:58:35;2.15;;;1.98;;
67191;SDS011;54120;53.504;49.426;2023-12-20T01:01:00;2.20;;;2.00;;
67191;SDS011;54120;53.504;49.426;2023-12-20T01:03:27;2.72;;;2.20;;
67191;SDS011;54120;53.504;49.426;2023-12-20T01:05:53;2.30;;;2.05;;
67191;SDS011;54120;53.504;49.426;2023-12-20T01:08:19;2.72;;;2.25;;
67191;SDS011;54120;53.504;49.426;2023-12-20T01:10:45;1.80;;;1.70;;
67191;SDS011;54120;53.504;49.426;2023-12-20T01:13:12;2.15;;;1.95;;
67191;SDS011;54120;53.504;49.426;2023-12-20T01:15:38;2.00;;;1.90;;
67191;SDS011;54120;53.504;49.426;2023-12-20T01:18:04;1.92;;;1.83;;
67191;SDS011;54120;53.504;49.426;2023-12-20T01:20:30;1.80;;;1.70;;
67191;SDS011;54120;53.504;49.426;2023-12-20T01:22:57;1.90;;;1.80;;
67191;SDS011;54120;53.504;49.426;2023-12-20T01:25:23;1.67;;;1.58;;
67191;SDS011;54120;53.504;49.426;2023-12-20T01:27:48;1.55;;;1.45;;
67191;SDS011;54120;53.504;49.426;2023-12-20T01:30:15;1.85;;;1.70;;
67191;SDS011;54120;53.504;49.426;2023-12-20T01:32:42;1.50;;;1.40;;
67191;SDS011;54120;53.504;49.426;2023-12-20T01:35:08;1.70;;;1.60;;
67191;SDS011;54120;53.504;49.426;2023-12-20T01:37:34;1.60;;;1.50;;
67191;SDS011;54120;53.504;49.426;2023-12-20T01:40:00;2.47;;;1.55;;
67191;SDS011;54120;53.504;49.426;2023-12-20T01:42:27;1.45;;;1.35;;
67191;SDS011;54120;53.504;49.426;2023-12-20T01:44:53;1.40;;;1.30;;
67191;SDS011;54120;53.504;49.426;2023-12-20T01:47:19;1.45;;;1.35;;
67191;SDS011;54120;53.504;49.426;2023-12-20T01:49:46;1.63;;;1.52;;
67191;SDS011;54120;53.504;49.426;2023-12-20T01:52:12;1.50;;;1.40;;
67191;SDS011;54120;53.504;49.426;2023-12-20T01:54:38;1.65;;;1.55;;
67191;SDS011;54120;53.504;49.426;2023-12-20T01:57:08;1.40;;;1.30;;
67191;SDS011;54120;53.504;49.426;2023-12-20T01:59:36;1.98;;;1.73;;
67191;SDS011;54120;53.504;49.426;2023-12-20T02:02:05;1.70;;;1.60;;
67191;SDS011;54120;53.504;49.426;2023-12-20T02:04:33;1.80;;;1.70;;
67191;SDS011;54120;53.504;49.426;2023-12-20T02:06:59;1.55;;;1.45;;
67191;SDS011;54120;53.504;49.426;2023-12-20T02:09:26;1.85;;;1.60;;
67191;SDS011;54120;53.504;49.426;2023-12-20T02:11:54;1.27;;;1.25;;
67191;SDS011;54120;53.504;49.426;2023-12-20T02:14:20;1.20;;;1.10;;
67191;SDS011;54120;53.504;49.426;2023-12-20T02:16:46;1.40;;;1.30;;
67191;SDS011;54120;53.504;49.426;2023-12-20T02:19:15;2.67;;;2.25;;
67191;SDS011;54120;53.504;49.426;2023-12-20T02:21:44;1.33;;;1.30;;
67191;SDS011;54120;53.504;49.426;2023-12-20T02:24:11;2.17;;;1.88;;
67191;SDS011;54120;53.504;49.426;2023-12-20T02:26:38;1.67;;;1.35;;
67191;SDS011;54120;53.504;49.426;2023-12-20T02:29:05;1.20;;;1.10;;
67191;SDS011;54120;53.504;49.426;2023-12-20T02:31:31;1.23;;;1.13;;
67191;SDS011;54120;53.504;49.426;2023-12-20T02:33:57;0.90;;;0.90;;
67191;SDS011;54120;53.504;49.426;2023-12-20T02:36:23;1.05;;;1.05;;
67191;SDS011;54120;53.504;49.426;2023-12-20T02:38:49;1.17;;;1.17;;
67191;SDS011;54120;53.504;49.426;2023-12-20T02:41:16;0.93;;;0.93;;
67191;SDS011;54120;53.504;49.426;2023-12-20T02:43:44;1.05;;;0.95;;
67191;SDS011;54120;53.504;49.426;2023-12-20T02:46:11;1.27;;;1.02;;
67191;SDS011;54120;53.504;49.426;2023-12-20T02:48:38;1.33;;;1.20;;
67191;SDS011;54120;53.504;49.426;2023-12-20T02:51:04;1.10;;;1.00;;
67191;SDS011;54120;53.504;49.426;2023-12-20T02:53:31;1.30;;;1.00;;
67191;SDS011;54120;53.504;49.426;2023-12-20T02:55:57;1.60;;;1.13;;
67191;SDS011;54120;53.504;49.426;2023-12-20T02:58:23;0.90;;;0.90;;
67191;SDS011;54120;53.504;49.426;2023-12-20T03:00:50;1.00;;;1.00;;
67191;SDS011;54120;53.504;49.426;2023-12-20T03:03:16;1.27;;;1.00;;
67191;SDS011;54120;53.504;49.426;2023-12-20T03:05:43;1.00;;;1.00;;
67191;SDS011;54120;53.504;49.426;2023-12-20T03:08:10;0.95;;;0.95;;
67191;SDS011;54120;53.504;49.426;2023-12-20T03:10:37;1.13;;;1.10;;
67191;SDS011;54120;53.504;49.426;2023-12-20T03:13:03;1.20;;;1.10;;
67191;SDS011;54120;53.504;49.426;2023-12-20T03:15:30;0.90;;;0.90;;
67191;SDS011;54120;53.504;49.426;2023-12-20T03:17:56;0.88;;;0.88;;
67191;SDS011;54120;53.504;49.426;2023-12-20T03:20:24;1.13;;;1.10;;
67191;SDS011;54120;53.504;49.426;2023-12-20T03:22:51;1.20;;;1.20;;
67191;SDS011;54120;53.504;49.426;2023-12-20T03:25:18;1.08;;;1.08;;
67191;SDS011;54120;53.504;49.426;2023-12-20T03:27:44;1.17;;;1.17;;
67191;SDS011;54120;53.504;49.426;2023-12-20T03:30:10;1.15;;;1.15;;
67191;SDS011;54120;53.504;49.426;2023-12-20T03:32:37;1.00;;;1.00;;
67191;SDS011;54120;53.504;49.426;2023-12-20T03:35:05;1.20;;;1.20;;
67191;SDS011;54120;53.504;49.426;2023-12-20T03:37:32;1.30;;;1.20;;
67191;SDS011;54120;53.504;49.426;2023-12-20T03:39:59;1.48;;;1.38;;
67191;SDS011;54120;53.504;49.426;2023-12-20T03:42:25;1.48;;;1.38;;
67191;SDS011;54120;53.504;49.426;2023-12-20T03:44:51;1.85;;;1.50;;
67191;SDS011;54120;53.504;49.426;2023-12-20T03:47:19;1.48;;;1.38;;
67191;SDS011;54120;53.504;49.426;2023-12-20T03:49:45;1.70;;;1.60;;
67191;SDS011;54120;53.504;49.426;2023-12-20T03:52:12;1.70;;;1.60;;
67191;SDS011;54120;53.504;49.426;2023-12-20T03:54:38;2.03;;;1.83;;
67191;SDS011;54120;53.504;49.426;2023-12-20T03:57:04;1.75;;;1.65;;
67191;SDS011;54120;53.504;49.426;2023-12-20T03:59:30;1.55;;;1.45;;
67191;SDS011;54120;53.504;49.426;2023-12-20T04:02:00;1.50;;;1.40;;
67191;SDS011;54120;53.504;49.426;2023-12-20T04:04:27;1.70;;;1.60;;
67191;SDS011;54120;53.504;49.426;2023-12-20T04:06:53;1.70;;;1.60;;
67191;SDS011;54120;53.504;49.426;2023-12-20T04:09:19;1.98;;;1.77;;
67191;SDS011;54120;53.504;49.426;2023-12-20T04:11:45;1.45;;;1.35;;
67191;SDS011;54120;53.504;49.426;2023-12-20T04:14:11;1.55;;;1.45;;
67191;SDS011;54120;53.504;49.426;2023-12-20T04:16:37;1.70;;;1.60;;
67191;SDS011;54120;53.504;49.426;2023-12-20T04:19:04;1.80;;;1.70;;
67191;SDS011;54120;53.504;49.426;2023-12-20T04:21:30;1.70;;;1.60;;
67191;SDS011;54120;53.504;49.426;2023-12-20T04:23:56;1.60;;;1.50;;
67191;SDS011;54120;53.504;49.426;2023-12-20T04:26:22;1.50;;;1.40;;
67191;SDS011;54120;53.504;49.426;2023-12-20T04:28:49;1.50;;;1.40;;
67191;SDS011;54120;53.504;49.426;2023-12-20T04:31:15;1.83;;;1.73;;
67191;SDS011;54120;53.504;49.426;2023-12-20T04:33:41;1.33;;;1.30;;
67191;SDS011;54120;53.504;49.426;2023-12-20T04:36:07;1.67;;;1.58;;
67191;SDS011;54120;53.504;49.426;2023-12-20T04:38:35;1.60;;;1.50;;
67191;SDS011;54120;53.504;49.426;2023-12-20T04:41:01;1.73;;;1.50;;
67191;SDS011;54120;53.504;49.426;2023-12-20T04:43:26;1.80;;;1.70;;
67191;SDS011;54120;53.504;49.426;2023-12-20T04:45:53;1.85;;;1.75;;
67191;SDS011;54120;53.504;49.426;2023-12-20T04:48:20;3.55;;;1.73;;
67191;SDS011;54120;53.504;49.426;2023-12-20T04:50:46;10.63;;;5.78;;
67191;SDS011;54120;53.504;49.426;2023-12-20T04:53:13;2.03;;;1.60;;
67191;SDS011;54120;53.504;49.426;2023-12-20T04:55:39;1.45;;;1.35;;
67191;SDS011;54120;53.504;49.426;2023-12-20T04:58:05;1.70;;;1.58;;
67191;SDS011;54120;53.504;49.426;2023-12-20T05:00:31;3.65;;;1.50;;
67191;SDS011;54120;53.504;49.426;2023-12-20T05:02:57;1.55;;;1.45;;
67191;SDS011;54120;53.504;49.426;2023-12-20T05:05:23;3.00;;;1.40;;
67191;SDS011;54120;53.504;49.426;2023-12-20T05:07:49;1.25;;;1.20;;
67191;SDS011;54120;53.504;49.426;2023-12-20T05:10:15;1.58;;;1.40;;
67191;SDS011;54120;53.504;49.426;2023-12-20T05:12:41;1.55;;;1.38;;
67191;SDS011;54120;53.504;49.426;2023-12-20T05:15:08;1.30;;;1.20;;
67191;SDS011;54120;53.504;49.426;2023-12-20T05:17:35;1.13;;;1.13;;
67191;SDS011;54120;53.504;49.426;2023-12-20T05:20:01;1.30;;;1.20;;
67191;SDS011;54120;53.504;49.426;2023-12-20T05:22:27;1.30;;;1.20;;
67191;SDS011;54120;53.504;49.426;2023-12-20T05:24:53;3.42;;;1.60;;
67191;SDS011;54120;53.504;49.426;2023-12-20T05:27:20;1.50;;;1.40;;
67191;SDS011;54120;53.504;49.426;2023-12-20T05:29:47;1.27;;;1.20;;
67191;SDS011;54120;53.504;49.426;2023-12-20T05:32:13;1.13;;;1.13;;
67191;SDS011;54120;53.504;49.426;2023-12-20T05:34:41;5.18;;;1.20;;
67191;SDS011;54120;53.504;49.426;2023-12-20T05:37:07;1.23;;;1.13;;
67191;SDS011;54120;53.504;49.426;2023-12-20T05:39:33;1.17;;;1.10;;
67191;SDS011;54120;53.504;49.426;2023-12-20T05:41:59;1.20;;;1.10;;
67191;SDS011;54120;53.504;49.426;2023-12-20T05:44:26;1.10;;;1.10;;
67191;SDS011;54120;53.504;49.426;2023-12-20T05:46:52;1.20;;;1.10;;
67191;SDS011;54120;53.504;49.426;2023-12-20T05:49:19;1.10;;;1.10;;
67191;SDS011;54120;53.504;49.426;2023-12-20T05:51:45;2.15;;;1.27;;
67191;SDS011;54120;53.504;49.426;2023-12-20T05:54:11;1.20;;;1.10;;
67191;SDS011;54120;53.504;49.426;2023-12-20T05:56:37;2.05;;;1.00;;
67191;SDS011;54120;53.504;49.426;2023-12-20T05:59:03;1.10;;;1.05;;
67191;SDS011;54120;53.504;49.426;2023-12-20T06:01:30;3.13;;;1.05;;
67191;SDS011;54120;53.504;49.426;2023-12-20T06:03:56;0.98;;;0.90;;
67191;SDS011;54120;53.504;49.426;2023-12-20T06:06:23;0.98;;;0.95;;
67191;SDS011;54120;53.504;49.426;2023-12-20T06:08:49;0.90;;;0.90;;
67191;SDS011;54120;53.504;49.426;2023-12-20T06:11:15;0.85;;;0.85;;
67191;SDS011;54120;53.504;49.426;2023-12-20T06:13:41;1.73;;;1.02;;
67191;SDS011;54120;53.504;49.426;2023-12-20T06:16:07;0.90;;;0.90;;
67191;SDS011;54120;53.504;49.426;2023-12-20T06:18:33;1.17;;;1.00;;
67191;SDS011;54120;53.504;49.426;2023-12-20T06:20:59;1.00;;;1.00;;
67191;SDS011;54120;53.504;49.426;2023-12-20T06:23:27;0.90;;;0.90;;
67191;SDS011;54120;53.504;49.426;2023-12-20T06:25:53;0.90;;;0.90;;
67191;SDS011;54120;53.504;49.426;2023-12-20T06:28:20;0.90;;;0.90;;
67191;SDS011;54120;53.504;49.426;2023-12-20T06:30:46;1.00;;;0.90;;
67191;SDS011;54120;53.504;49.426;2023-12-20T06:33:15;3.00;;;0.90;;
67191;SDS011;54120;53.504;49.426;2023-12-20T06:35:41;0.90;;;0.90;;
67191;SDS011;54120;53.504;49.426;2023-12-20T06:38:07;1.20;;;1.10;;
67191;SDS011;54120;53.504;49.426;2023-12-20T06:40:35;1.23;;;1.10;;
67191;SDS011;54120;53.504;49.426;2023-12-20T06:43:01;0.90;;;0.90;;
67191;SDS011;54120;53.504;49.426;2023-12-20T06:45:27;0.93;;;0.90;;
67191;SDS011;54120;53.504;49.426;2023-12-20T06:47:56;1.13;;;1.10;;
67191;SDS011;54120;53.504;49.426;2023-12-20T06:50:22;1.13;;;1.00;;
67191;SDS011;54120;53.504;49.426;2023-12-20T06:52:48;0.80;;;0.80;;
67191;SDS011;54120;53.504;49.426;2023-12-20T06:55:15;4.10;;;1.10;;
67191;SDS011;54120;53.504;49.426;2023-12-20T06:57:43;1.10;;;1.10;;
67191;SDS011;54120;53.504;49.426;2023-12-20T07:00:10;1.30;;;1.20;;
67191;SDS011;54120;53.504;49.426;2023-12-20T07:02:37;1.02;;;1.02;;
67191;SDS011;54120;53.504;49.426;2023-12-20T07:05:04;0.93;;;0.93;;
67191;SDS011;54120;53.504;49.426;2023-12-20T07:07:31;0.98;;;0.98;;
67191;SDS011;54120;53.504;49.426;2023-12-20T07:09:57;1.00;;;1.00;;
67191;SDS011;54120;53.504;49.426;2023-12-20T07:12:24;1.00;;;1.00;;
67191;SDS011;54120;53.504;49.426;2023-12-20T07:14:50;1.15;;;1.10;;
67191;SDS011;54120;53.504;49.426;2023-12-20T07:17:17;1.30;;;1.08;;
67191;SDS011;54120;53.504;49.426;2023-12-20T07:19:44;1.20;;;1.10;;
67191;SDS011;54120;53.504;49.426;2023-12-20T07:22:10;0.98;;;0.98;;
67191;SDS011;54120;53.504;49.426;2023-12-20T07:24:36;1.48;;;1.10;;
67191;SDS011;54120;53.504;49.426;2023-12-20T07:27:02;2.25;;;1.10;;
67191;SDS011;54120;53.504;49.426;2023-12-20T07:29:29;1.13;;;1.02;;
67191;SDS011;54120;53.504;49.426;2023-12-20T07:31:55;1.20;;;1.10;;
67191;SDS011;54120;53.504;49.426;2023-12-20T07:34:21;1.10;;;1.00;;
67191;SDS011;54120;53.504;49.426;2023-12-20T07:36:47;0.88;;;0.88;;
67191;SDS011;54120;53.504;49.426;2023-12-20T07:39:13;1.27;;;1.17;;
67191;SDS011;54120;53.504;49.426;2023-12-20T07:43:53;1.13;;;1.10;;
67191;SDS011;54120;53.504;49.426;2023-12-20T07:46:20;1.20;;;1.10;;
67191;SDS011;54120;53.504;49.426;2023-12-20T07:48:49;1.10;;;1.10;;
67191;SDS011;54120;53.504;49.426;2023-12-20T07:51:15;1.13;;;1.13;;
67191;SDS011;54120;53.504;49.426;2023-12-20T07:53:41;1.88;;;1.10;;
67191;SDS011;54120;53.504;49.426;2023-12-20T07:56:14;1.10;;;1.10;;
67191;SDS011;54120;53.504;49.426;2023-12-20T07:58:44;1.30;;;1.20;;
67191;SDS011;54120;53.504;49.426;2023-12-20T08:01:10;1.08;;;1.08;;
67191;SDS011;54120;53.504;49.426;2023-12-20T08:03:37;1.25;;;1.10;;
67191;SDS011;54120;53.504;49.426;2023-12-20T08:06:04;0.93;;;0.93;;
67191;SDS011;54120;53.504;49.426;2023-12-20T08:08:30;3.90;;;1.10;;
67191;SDS011;54120;53.504;49.426;2023-12-20T08:10:57;1.30;;;1.10;;
67191;SDS011;54120;53.504;49.426;2023-12-20T08:13:26;1.52;;;1.15;;
67191;SDS011;54120;53.504;49.426;2023-12-20T08:15:52;1.10;;;1.10;;
67191;SDS011;54120;53.504;49.426;2023-12-20T08:18:19;1.10;;;1.08;;
67191;SDS011;54120;53.504;49.426;2023-12-20T08:20:46;2.45;;;1.20;;
67191;SDS011;54120;53.504;49.426;2023-12-20T08:23:13;1.40;;;1.30;;
67191;SDS011;54120;53.504;49.426;2023-12-20T08:25:39;1.90;;;1.30;;
67191;SDS011;54120;53.504;49.426;2023-12-20T08:28:05;1.05;;;1.00;;
67191;SDS011;54120;53.504;49.426;2023-12-20T08:30:31;1.83;;;1.30;;
67191;SDS011;54120;53.504;49.426;2023-12-20T08:33:01;1.20;;;1.10;;
67191;SDS011;54120;53.504;49.426;2023-12-20T08:35:28;1.20;;;1.10;;
67191;SDS011;54120;53.504;49.426;2023-12-20T08:37:54;1.20;;;1.10;;
67191;SDS011;54120;53.504;49.426;2023-12-20T08:40:19;1.10;;;1.10;;
67191;SDS011;54120;53.504;49.426;2023-12-20T08:42:45;1.42;;;1.10;;
67191;SDS011;54120;53.504;49.426;2023-12-20T08:45:11;1.05;;;1.05;;
67191;SDS011;54120;53.504;49.426;2023-12-20T08:47:37;1.67;;;1.20;;
67191;SDS011;54120;53.504;49.426;2023-12-20T08:50:03;0.90;;;0.90;;
67191;SDS011;54120;53.504;49.426;2023-12-20T08:52:30;1.52;;;1.20;;
67191;SDS011;54120;53.504;49.426;2023-12-20T08:54:57;0.90;;;0.90;;
67191;SDS011;54120;53.504;49.426;2023-12-20T08:57:23;1.00;;;1.00;;
67191;SDS011;54120;53.504;49.426;2023-12-20T08:59:51;1.20;;;1.10;;
67191;SDS011;54120;53.504;49.426;2023-12-20T09:02:17;1.80;;;1.13;;
67191;SDS011;54120;53.504;49.426;2023-12-20T09:04:43;1.20;;;1.10;;
67191;SDS011;54120;53.504;49.426;2023-12-20T09:07:20;1.25;;;1.20;;
67191;SDS011;54120;53.504;49.426;2023-12-20T09:09:48;1.40;;;1.08;;
67191;SDS011;54120;53.504;49.426;2023-12-20T09:12:13;0.98;;;0.98;;
67191;SDS011;54120;53.504;49.426;2023-12-20T09:14:39;1.05;;;1.05;;
67191;SDS011;54120;53.504;49.426;2023-12-20T09:17:06;1.83;;;1.58;;
67191;SDS011;54120;53.504;49.426;2023-12-20T09:19:34;1.38;;;1.27;;
67191;SDS011;54120;53.504;49.426;2023-12-20T09:22:01;1.00;;;1.00;;
67191;SDS011;54120;53.504;49.426;2023-12-20T09:24:27;1.40;;;1.20;;
67191;SDS011;54120;53.504;49.426;2023-12-20T09:26:53;1.13;;;1.02;;
67191;SDS011;54120;53.504;49.426;2023-12-20T09:29:19;1.13;;;1.13;;
67191;SDS011;54120;53.504;49.426;2023-12-20T09:31:45;1.13;;;1.02;;
67191;SDS011;54120;53.504;49.426;2023-12-20T09:34:14;1.00;;;1.00;;
67191;SDS011;54120;53.504;49.426;2023-12-20T09:36:41;1.08;;;1.08;;
67191;SDS011;54120;53.504;49.426;2023-12-20T09:39:15;1.00;;;1.00;;
67191;SDS011;54120;53.504;49.426;2023-12-20T09:41:51;1.05;;;1.05;;
67191;SDS011;54120;53.504;49.426;2023-12-20T09:44:21;1.55;;;1.33;;
67191;SDS011;54120;53.504;49.426;2023-12-20T09:46:49;2.40;;;1.20;;
67191;SDS011;54120;53.504;49.426;2023-12-20T09:49:18;1.13;;;1.10;;
67191;SDS011;54120;53.504;49.426;2023-12-20T09:51:50;1.10;;;1.10;;
67191;SDS011;54120;53.504;49.426;2023-12-20T09:54:17;1.02;;;1.02;;
67191;SDS011;54120;53.504;49.426;2023-12-20T09:56:44;1.15;;;1.10;;
67191;SDS011;54120;53.504;49.426;2023-12-20T09:59:10;1.20;;;1.20;;
67191;SDS011;54120;53.504;49.426;2023-12-20T10:01:38;1.15;;;1.13;;
67191;SDS011;54120;53.504;49.426;2023-12-20T10:04:06;1.42;;;1.20;;
67191;SDS011;54120;53.504;49.426;2023-12-20T10:06:36;2.05;;;1.85;;
67191;SDS011;54120;53.504;49.426;2023-12-20T10:09:07;1.42;;;1.33;;
67191;SDS011;54120;53.504;49.426;2023-12-20T10:11:38;1.20;;;1.20;;
67191;SDS011;54120;53.504;49.426;2023-12-20T10:14:05;1.95;;;1.50;;
67191;SDS011;54120;53.504;49.426;2023-12-20T10:16:32;1.20;;;1.20;;
67191;SDS011;54120;53.504;49.426;2023-12-20T10:18:59;1.17;;;1.17;;
67191;SDS011;54120;53.504;49.426;2023-12-20T10:21:29;2.58;;;2.00;;
67191;SDS011;54120;53.504;49.426;2023-12-20T10:23:56;1.80;;;1.67;;
67191;SDS011;54120;53.504;49.426;2023-12-20T10:26:23;1.58;;;1.48;;
67191;SDS011;54120;53.504;49.426;2023-12-20T10:28:55;1.58;;;1.48;;
67191;SDS011;54120;53.504;49.426;2023-12-20T10:31:31;1.70;;;1.60;;
67191;SDS011;54120;53.504;49.426;2023-12-20T10:34:00;3.07;;;1.70;;
67191;SDS011;54120;53.504;49.426;2023-12-20T10:36:29;1.38;;;1.27;;
67191;SDS011;54120;53.504;49.426;2023-12-20T10:38:59;1.60;;;1.50;;
67191;SDS011;54120;53.504;49.426;2023-12-20T10:41:28;1.30;;;1.30;;
67191;SDS011;54120;53.504;49.426;2023-12-20T10:43:59;2.13;;;1.60;;
67191;SDS011;54120;53.504;49.426;2023-12-20T10:46:27;1.77;;;1.55;;
67191;SDS011;54120;53.504;49.426;2023-12-20T10:48:58;2.03;;;1.60;;
67191;SDS011;54120;53.504;49.426;2023-12-20T10:51:27;1.55;;;1.45;;
67191;SDS011;54120;53.504;49.426;2023-12-20T10:53:55;1.58;;;1.52;;
67191;SDS011;54120;53.504;49.426;2023-12-20T10:56:22;1.50;;;1.40;;
67191;SDS011;54120;53.504;49.426;2023-12-20T10:58:52;1.90;;;1.48;;
67191;SDS011;54120;53.504;49.426;2023-12-20T11:01:21;1.70;;;1.60;;
67191;SDS011;54120;53.504;49.426;2023-12-20T11:03:50;1.42;;;1.35;;
67191;SDS011;54120;53.504;49.426;2023-12-20T11:14:46;2.28;;;1.85;;
67191;SDS011;54120;53.504;49.426;2023-12-20T11:17:14;2.00;;;1.88;;
67191;SDS011;54120;53.504;49.426;2023-12-20T11:22:20;1.83;;;1.73;;
67191;SDS011;54120;53.504;49.426;2023-12-20T11:24:47;1.55;;;1.45;;
67191;SDS011;54120;53.504;49.426;2023-12-20T11:27:15;1.60;;;1.50;;
67191;SDS011;54120;53.504;49.426;2023-12-20T11:29:42;1.65;;;1.55;;
67191;SDS011;54120;53.504;49.426;2023-12-20T11:34:56;1.88;;;1.40;;
67191;SDS011;54120;53.504;49.426;2023-12-20T11:37:42;1.70;;;1.60;;
67191;SDS011;54120;53.504;49.426;2023-12-20T11:40:13;1.88;;;1.77;;
67191;SDS011;54120;53.504;49.426;2023-12-20T11:42:42;1.40;;;1.30;;
67191;SDS011;54120;53.504;49.426;2023-12-20T11:45:17;2.20;;;2.00;;
67191;SDS011;54120;53.504;49.426;2023-12-20T11:47:48;1.83;;;1.73;;
67191;SDS011;54120;53.504;49.426;2023-12-20T11:50:15;1.70;;;1.60;;
67191;SDS011;54120;53.504;49.426;2023-12-20T11:52:42;3.05;;;1.73;;
67191;SDS011;54120;53.504;49.426;2023-12-20T11:55:08;1.55;;;1.45;;
67191;SDS011;54120;53.504;49.426;2023-12-20T11:57:35;2.10;;;1.90;;
67191;SDS011;54120;53.504;49.426;2023-12-20T12:00:02;1.88;;;1.77;;
67191;SDS011;54120;53.504;49.426;2023-12-20T12:02:29;1.80;;;1.70;;
67191;SDS011;54120;53.504;49.426;2023-12-20T12:04:56;3.45;;;1.90;;
67191;SDS011;54120;53.504;49.426;2023-12-20T12:07:24;2.05;;;1.90;;
67191;SDS011;54120;53.504;49.426;2023-12-20T12:09:51;2.08;;;1.88;;
67191;SDS011;54120;53.504;49.426;2023-12-20T12:12:17;1.90;;;1.80;;
67191;SDS011;54120;53.504;49.426;2023-12-20T12:14:45;2.00;;;1.80;;
67191;SDS011;54120;53.504;49.426;2023-12-20T12:17:12;2.30;;;1.83;;
67191;SDS011;54120;53.504;49.426;2023-12-20T12:19:40;1.88;;;1.77;;
67191;SDS011;54120;53.504;49.426;2023-12-20T12:22:12;2.33;;;2.00;;
67191;SDS011;54120;53.504;49.426;2023-12-20T12:24:44;2.10;;;1.90;;
67191;SDS011;54120;53.504;49.426;2023-12-20T12:27:12;2.15;;;1.70;;
67191;SDS011;54120;53.504;49.426;2023-12-20T12:29:59;3.55;;;2.08;;
67191;SDS011;54120;53.504;49.426;2023-12-20T12:32:30;2.08;;;1.90;;
67191;SDS011;54120;53.504;49.426;2023-12-20T12:34:58;2.47;;;1.90;;
67191;SDS011;54120;53.504;49.426;2023-12-20T12:37:24;2.10;;;1.90;;
67191;SDS011;54120;53.504;49.426;2023-12-20T12:39:55;2.25;;;2.08;;
67191;SDS011;54120;53.504;49.426;2023-12-20T12:42:21;2.63;;;1.95;;
67191;SDS011;54120;53.504;49.426;2023-12-20T12:44:48;2.30;;;2.10;;
67191;SDS011;54120;53.504;49.426;2023-12-20T12:47:14;2.40;;;2.17;;
67191;SDS011;54120;53.504;49.426;2023-12-20T12:49:40;2.00;;;1.90;;
67191;SDS011;54120;53.504;49.426;2023-12-20T12:52:06;2.53;;;2.30;;
67191;SDS011;54120;53.504;49.426;2023-12-20T12:54:32;2.30;;;2.10;;
67191;SDS011;54120;53.504;49.426;2023-12-20T12:56:59;1.98;;;1.88;;
67191;SDS011;54120;53.504;49.426;2023-12-20T12:59:25;2.40;;;2.20;;
67191;SDS011;54120;53.504;49.426;2023-12-20T13:01:52;2.05;;;1.88;;
67191;SDS011;54120;53.504;49.426;2023-12-20T13:04:18;2.08;;;1.98;;
67191;SDS011;54120;53.504;49.426;2023-12-20T13:06:44;1.98;;;1.88;;
67191;SDS011;54120;53.504;49.426;2023-12-20T13:09:10;2.45;;;2.22;;
67191;SDS011;54120;53.504;49.426;2023-12-20T13:11:37;2.22;;;2.00;;
67191;SDS011;54120;53.504;49.426;2023-12-20T13:14:03;3.22;;;2.05;;
67191;SDS011;54120;53.504;49.426;2023-12-20T13:16:29;2.58;;;2.38;;
67191;SDS011;54120;53.504;49.426;2023-12-20T13:18:56;2.60;;;2.40;;
67191;SDS011;54120;53.504;49.426;2023-12-20T13:21:22;2.47;;;2.28;;
67191;SDS011;54120;53.504;49.426;2023-12-20T13:23:48;2.60;;;2.40;;
67191;SDS011;54120;53.504;49.426;2023-12-20T13:26:14;2.60;;;2.40;;
67191;SDS011;54120;53.504;49.426;2023-12-20T13:28:42;2.85;;;2.65;;
67191;SDS011;54120;53.504;49.426;2023-12-20T13:31:08;2.40;;;2.25;;
67191;SDS011;54120;53.504;49.426;2023-12-20T13:33:35;3.22;;;2.63;;
67191;SDS011;54120;53.504;49.426;2023-12-20T13:36:01;2.60;;;2.40;;
67191;SDS011;54120;53.504;49.426;2023-12-20T13:38:28;2.70;;;2.50;;
67191;SDS011;54120;53.504;49.426;2023-12-20T13:40:56;4.15;;;3.30;;
67191;SDS011;54120;53.504;49.426;2023-12-20T13:43:24;3.50;;;3.20;;
67191;SDS011;54120;53.504;49.426;2023-12-20T13:45:50;3.30;;;2.92;;
67191;SDS011;54120;53.504;49.426;2023-12-20T13:48:17;3.13;;;2.88;;
67191;SDS011;54120;53.504;49.426;2023-12-20T13:50:44;4.00;;;3.22;;
67191;SDS011;54120;53.504;49.426;2023-12-20T13:53:10;3.15;;;2.70;;
67191;SDS011;54120;53.504;49.426;2023-12-20T13:55:37;3.92;;;3.63;;
67191;SDS011;54120;53.504;49.426;2023-12-20T13:58:03;3.35;;;3.03;;
67191;SDS011;54120;53.504;49.426;2023-12-20T14:00:30;3.50;;;3.20;;
67191;SDS011;54120;53.504;49.426;2023-12-20T14:02:57;3.40;;;3.00;;
67191;SDS011;54120;53.504;49.426;2023-12-20T14:05:25;3.70;;;3.40;;
67191;SDS011;54120;53.504;49.426;2023-12-20T14:07:54;3.30;;;3.00;;
67191;SDS011;54120;53.504;49.426;2023-12-20T14:10:20;3.47;;;3.17;;
67191;SDS011;54120;53.504;49.426;2023-12-20T14:12:46;3.88;;;3.58;;
67191;SDS011;54120;53.504;49.426;2023-12-20T14:15:13;4.32;;;3.88;;
67191;SDS011;54120;53.504;49.426;2023-12-20T14:17:39;3.92;;;3.53;;
67191;SDS011;54120;53.504;49.426;2023-12-20T14:20:07;4.03;;;3.65;;
67191;SDS011;54120;53.504;49.426;2023-12-20T14:22:34;4.20;;;3.80;;
67191;SDS011;54120;53.504;49.426;2023-12-20T14:25:02;5.63;;;4.10;;
67191;SDS011;54120;53.504;49.426;2023-12-20T14:29:02;4.30;;;3.88;;
67191;SDS011;54120;53.504;49.426;2023-12-20T14:31:29;4.88;;;4.15;;
67191;SDS011;54120;53.504;49.426;2023-12-20T14:33:56;5.43;;;4.60;;
67191;SDS011;54120;53.504;49.426;2023-12-20T14:36:29;5.28;;;4.07;;
67191;SDS011;54120;53.504;49.426;2023-12-20T14:38:57;5.10;;;3.95;;
67191;SDS011;54120;53.504;49.426;2023-12-20T14:41:23;5.30;;;4.18;;
67191;SDS011;54120;53.504;49.426;2023-12-20T14:43:50;5.20;;;4.05;;
67191;SDS011;54120;53.504;49.426;2023-12-20T14:46:18;6.25;;;4.45;;
67191;SDS011;54120;53.504;49.426;2023-12-20T14:48:44;4.88;;;4.45;;
67191;SDS011;54120;53.504;49.426;2023-12-20T14:51:11;5.38;;;4.88;;